Terminal Aerodrome Forecast
Issued by NWS

Home | Current Version | Previous Version | Text Only | Print | Product List | Glossary On
Versions: 1 2 3 4 5 6 7 8 9 10 11 12 13 14 15 16 17 18
748
FTUS43 KDLH 270119 AAA
TAFHYR
TAF AMD
KHYR 270119Z 2701/2724 23004KT P6SM VCTS SCT050CB BKN120
      TEMPO 2702/2706 VRB35KT 2SM TSRA SCT025CB OVC040
     FM270600 VRB02KT P6SM VCSH SCT040 OVC080
     FM271600 05007KT P6SM VCSH SCT030 OVC050=

USA.gov is the U.S. government's official web portal to all federal, state and local government web resources and services.